MST,Max TemperatureF,Mean TemperatureF,Min TemperatureF,Max Dew PointF,MeanDew PointF,Min DewpointF,Max Humidity, Mean Humidity, Min Humidity, Max Sea Level PressureIn, Mean Sea Level PressureIn, Min Sea Level PressureIn, Max VisibilityMiles, Mean VisibilityMiles, Min VisibilityMiles, Max Wind SpeedMPH, Mean Wind SpeedMPH, Max Gust SpeedMPH,PrecipitationIn, CloudCover, Events, WindDirDegrees
2012-12-1,51,44,36,31,28,25,70,56,41,30.00,29.92,29.79,10,10,10,35,15,45,0.00,2,,238
2012-12-2,51,44,36,34,27,23,70,53,36,29.91,29.74,29.62,10,10,4,48,27,62,0.01,1,Rain,214
2012-12-3,37,31,25,32,20,11,89,66,43,30.31,30.06,29.75,10,10,6,38,21,45,0.01,2,Rain,254
2012-12-4,44,32,19,25,16,11,68,49,29,30.41,30.30,30.17,10,10,10,30,13,38,0.00,2,,228
2012-12-5,49,41,33,32,26,20,82,59,36,30.13,30.00,29.89,10,10,10,33,17,43,T,4,Rain,227
2012-12-6,43,36,28,30,25,19,92,66,39,30.02,29.93,29.79,10,10,10,30,15,38,0.00,2,,237
2012-12-7,34,30,25,23,16,8,75,57,38,29.98,29.89,29.77,10,10,10,39,24,47,0.00,2,,257
2012-12-8,29,19,8,22,13,-7,88,60,31,30.08,29.77,29.66,10,6,0,44,22,53,0.02,6,Fog-Snow,261
2012-12-9,16,6,-4,9,1,-7,91,75,58,30.39,30.22,29.94,10,9,2,22,9,36,T,3,Snow,303
2012-12-10,26,13,-1,18,9,-6,91,73,55,30.16,30.00,29.83,10,8,1,37,18,48,T,5,Snow,253
2012-12-11,32,16,-1,22,16,6,88,76,63,30.09,29.93,29.79,10,8,1,41,19,53,T,5,Snow,240
2012-12-12,40,34,27,16,15,14,63,52,40,29.91,29.81,29.73,10,10,10,39,21,52,0.00,1,,229
2012-12-13,41,31,20,16,14,10,67,50,33,29.97,29.92,29.88,10,10,10,31,11,41,0.00,3,Rain,226
2012-12-14,55,36,16,16,13,9,74,46,22,29.85,29.67,29.48,10,10,10,22,5,25,0.00,2,,290
2012-12-15,,,,,,,,,,29.73,29.70,29.68,10,6,2,22,14,31,T,7,,238
2012-12-16,,,,,,,,,,29.76,29.71,29.66,10,10,5,33,20,43,T,5,,246
2012-12-17,,,,,,,,,,29.73,29.62,29.54,10,7,1,37,25,51,0.07,6,,253
2012-12-18,,,,,,,,,,29.74,29.70,29.67,10,10,10,23,14,38,T,7,,258
2012-12-19,,,,,,,,,,30.14,29.90,29.67,10,10,10,24,12,40,0.00,3,,311
2012-12-20,,,,,,,,,,30.29,30.24,30.15,10,10,10,27,13,38,0.00,0,,211
2012-12-21,46,36,25,5,4,-1,41,30,18,30.22,30.14,30.05,10,10,10,31,19,45,0.00,0,,225
2012-12-22,39,31,23,6,3,0,40,32,23,30.19,30.04,29.87,10,10,10,35,17,45,0.00,0,,211
2012-12-23,34,27,19,20,15,11,71,55,39,30.07,30.00,29.87,10,10,10,32,16,39,0.00,4,,233
2012-12-24,31,23,15,27,22,10,92,81,69,29.94,29.76,29.67,10,4,1,30,12,40,0.06,8,Snow,283
2012-12-25,18,11,3,9,4,1,88,78,67,30.28,30.09,29.86,10,6,2,16,7,22,0.01,6,Snow,322
2012-12-26,25,19,13,18,13,7,84,73,62,30.08,29.78,29.56,10,9,2,28,13,38,T,7,Snow,225
2012-12-27,19,15,11,14,11,9,88,81,73,30.02,29.76,29.57,10,5,1,18,9,22,T,8,Snow,275
2012-12-28,19,15,10,10,8,5,88,78,67,30.30,30.08,29.84,10,8,2,26,15,30,T,6,Snow,254
2012-12-29,24,11,-2,7,1,-3,87,65,43,30.41,30.26,30.07,10,10,10,22,9,32,0.00,0,,218
2012-12-30,24,12,-1,8,2,-4,87,69,50,30.17,30.11,30.06,10,10,10,25,6,38,0.00,2,,252
2012-12-31,15,4,-7,6,0,-12,87,77,67,30.28,30.19,30.01,10,10,10,20,6,25,0.00,2,,250